Map

Track Data

SID SEASON NUMBER BASIN SUBBASIN NAME ISO_TIME NATURE LAT LON WMO_WIND WMO_PRES WMO_AGENCY TRACK_TYPE DIST2LAND LANDFALL IFLAG USA_AGENCY USA_ATCF_ID USA_LAT USA_LON USA_RECORD USA_STATUS USA_WIND USA_PRES USA_SSHS USA_R34_NE USA_R34_SE USA_R34_SW USA_R34_NW USA_R50_NE USA_R50_SE USA_R50_SW USA_R50_NW USA_R64_NE USA_R64_SE USA_R64_SW USA_R64_NW USA_POCI USA_ROCI USA_RMW USA_EYE TOKYO_LAT TOKYO_LON TOKYO_GRADE TOKYO_WIND TOKYO_PRES TOKYO_R50_DIR TOKYO_R50_LONG TOKYO_R50_SHORT TOKYO_R30_DIR TOKYO_R30_LONG TOKYO_R30_SHORT TOKYO_LAND CMA_LAT CMA_LON CMA_CAT CMA_WIND CMA_PRES HKO_LAT HKO_LON HKO_CAT HKO_WIND HKO_PRES NEWDELHI_LAT NEWDELHI_LON NEWDELHI_GRADE NEWDELHI_WIND NEWDELHI_PRES NEWDELHI_CI NEWDELHI_DP NEWDELHI_POCI REUNION_LAT REUNION_LON REUNION_TYPE REUNION_WIND REUNION_PRES REUNION_TNUM REUNION_CI REUNION_RMW REUNION_R34_NE REUNION_R34_SE REUNION_R34_SW REUNION_R34_NW REUNION_R50_NE REUNION_R50_SE REUNION_R50_SW REUNION_R50_NW REUNION_R64_NE REUNION_R64_SE REUNION_R64_SW REUNION_R64_NW BOM_LAT BOM_LON BOM_TYPE BOM_WIND BOM_PRES BOM_TNUM BOM_CI BOM_RMW BOM_R34_NE BOM_R34_SE BOM_R34_SW BOM_R34_NW BOM_R50_NE BOM_R50_SE BOM_R50_SW BOM_R50_NW BOM_R64_NE BOM_R64_SE BOM_R64_SW BOM_R64_NW BOM_ROCI BOM_POCI BOM_EYE BOM_POS_METHOD BOM_PRES_METHOD NADI_LAT NADI_LON NADI_CAT NADI_WIND NADI_PRES WELLINGTON_LAT WELLINGTON_LON WELLINGTON_WIND WELLINGTON_PRES DS824_LAT DS824_LON DS824_STAGE DS824_WIND DS824_PRES TD9636_LAT TD9636_LON TD9636_STAGE TD9636_WIND TD9636_PRES TD9635_LAT TD9635_LON TD9635_WIND TD9635_PRES TD9635_ROCI NEUMANN_LAT NEUMANN_LON NEUMANN_CLASS NEUMANN_WIND NEUMANN_PRES MLC_LAT MLC_LON MLC_CLASS MLC_WIND MLC_PRES USA_GUST BOM_GUST BOM_GUST_PER REUNION_GUST REUNION_GUST_PER USA_SEAHGT USA_SEARAD_NE USA_SEARAD_SE USA_SEARAD_SW USA_SEARAD_NW STORM_SPEED STORM_DIR
1862305S12062 1863 27 SI MM NOT_NAMED 1862-10-31 18:00:00 NR -12.3000 61.8000 main 976 946 __________O___ -1 -12.3000 61.8000 7 6 233
1862305S12062 1863 27 SI MM NOT_NAMED 1862-10-31 21:00:00 NR -12.4735 61.5626 main 946 922 __________P___ -1 -12.4735 61.5626 7 6 233
1862305S12062 1863 27 SI MM NOT_NAMED 1862-11-01 00:00:00 NR -12.6575 61.3201 main 912 883 __________P___ -1 -12.6575 61.3201 7 6 231
1862305S12062 1863 27 SI MM NOT_NAMED 1862-11-01 03:00:00 NR -12.8628 61.0675 main 883 850 __________P___ -1 -12.8628 61.0675 7 7 229
1862305S12062 1863 27 SI MM NOT_NAMED 1862-11-01 06:00:00 NR -13.1000 60.8000 main 850 806 __________O___ -1 -13.1000 60.8000 7 7 226
1862305S12062 1863 27 SI MM NOT_NAMED 1862-11-01 09:00:00 NR -13.3785 60.5159 main 806 763 __________P___ -1 -13.3785 60.5159 7 8 223
1862305S12062 1863 27 SI MM NOT_NAMED 1862-11-01 12:00:00 NR -13.7027 60.2275 main 763 714 __________P___ -1 -13.7027 60.2275 7 9 218
1862305S12062 1863 27 SI MM NOT_NAMED 1862-11-01 15:00:00 NR -14.0754 59.9503 main 714 661 __________P___ -1 -14.0754 59.9503 7 10 213
1862305S12062 1863 27 SI MM NOT_NAMED 1862-11-01 18:00:00 NR -14.5000 59.7000 main 661 612 __________O___ -1 -14.5000 59.7000 7 10 210
1862305S12062 1863 27 SI MM NOT_NAMED 1862-11-01 21:00:00 NR -14.9220 59.4482 main 609 549 __________P___ -1 -14.9220 59.4482 7 10 207
1862305S12062 1863 27 SI MM NOT_NAMED 1862-11-02 00:00:00 NR -15.4002 59.2312 main 549 492 __________P___ -1 -15.4002 59.2312 7 11 199
1862305S12062 1863 27 SI MM NOT_NAMED 1862-11-02 03:00:00 NR -15.9533 59.0736 main 482 414 __________P___ -1 -15.9533 59.0736 7 12 191
1862305S12062 1863 27 SI MM NOT_NAMED 1862-11-02 06:00:00 NR -16.6000 59.0000 main 414 341 __________O___ -1 -16.6000 59.0000 7 15 183
1862305S12062 1863 27 SI MM NOT_NAMED 1862-11-02 09:00:00 NR -17.3927 58.9862 main 331 252 __________P___ -1 -17.3927 58.9862 7 17 178
1862305S12062 1863 27 SI MM NOT_NAMED 1862-11-02 12:00:00 NR -18.2694 59.0632 main 249 192 __________P___ -1 -18.2694 59.0632 7 18 173
1862305S12062 1863 27 SI MM NOT_NAMED 1862-11-02 15:00:00 NR -19.1614 59.2336 main 186 172 __________P___ -1 -19.1614 59.2336 7 18 167
1862305S12062 1863 27 SI MM NOT_NAMED 1862-11-02 18:00:00 NR -20.0000 59.5000 main 180 178 __________O___ -1 -20.0000 59.5000 7 17 159
1862305S12062 1863 27 SI MM NOT_NAMED 1862-11-02 21:00:00 NR -20.7306 59.8591 main 223 223 __________P___ -1 -20.7306 59.8591 7 16 152
1862305S12062 1863 27 SI MM NOT_NAMED 1862-11-03 00:00:00 NR -21.3930 60.3080 main 287 287 __________P___ -1 -21.3930 60.3080 7 15 145
1862305S12062 1863 27 SI MM NOT_NAMED 1862-11-03 03:00:00 NR -21.9838 60.8031 main 362 362 __________P___ -1 -21.9838 60.8031 7 14 140
1862305S12062 1863 27 SI MM NOT_NAMED 1862-11-03 06:00:00 NR -22.5000 61.3000 main 434 434 __________O___ -1 -22.5000 61.3000 7 13 138
1862305S12062 1863 27 SI MM NOT_NAMED 1862-11-03 09:00:00 NR -22.9668 61.7455 main 498 498 __________P___ -1 -22.9668 61.7455 7 12 137
1862305S12062 1863 27 SI MM NOT_NAMED 1862-11-03 12:00:00 NR -23.3621 62.1813 main 565 565 __________P___ -1 -23.3621 62.1813 7 11 133
1862305S12062 1863 27 SI MM NOT_NAMED 1862-11-03 15:00:00 NR -23.7013 62.6014 main 618 618 __________P___ -1 -23.7013 62.6014 7 10 130
1862305S12062 1863 27 SI MM NOT_NAMED 1862-11-03 18:00:00 NR -24.0000 63.0000 main 671 671 __________O___ -1 -24.0000 63.0000 7 9 129
1862305S12062 1863 27 SI MM NOT_NAMED 1862-11-03 21:00:00 NR -24.2722 63.3734 main 723 723 __________P___ -1 -24.2722 63.3734 7 8 128
1862305S12062 1863 27 SI MM NOT_NAMED 1862-11-04 00:00:00 NR -24.5255 63.7265 main 761 761 __________P___ -1 -24.5255 63.7265 7 8 128
1862305S12062 1863 27 SI MM NOT_NAMED 1862-11-04 03:00:00 NR -24.7661 64.0663 main 813 813 __________P___ -1 -24.7661 64.0663 7 8 128
1862305S12062 1863 27 SI MM NOT_NAMED 1862-11-04 06:00:00 NR -25.0000 64.4000 main 851 __________O___ -1 -25.0000 64.4000 7 8 128

About IBTrACS Database

This database is a web-friendly format of International Best Track Archive for Climate Stewardship (IBTrACS), a global best track data archive curated by NOAA dating back to 1842.

Updated: 2021-11-26